sensor_id;sensor_type;location;lat;lon;timestamp;pressure;altitude;pressure_sealevel;temperature;humidity
54455;BME280;40364;52.270;10.546;2023-06-22T00:00:48;100869.16;;;33.27;39.99
54455;BME280;40364;52.270;10.546;2023-06-22T00:03:15;100871.09;;;33.21;40.09
54455;BME280;40364;52.270;10.546;2023-06-22T00:05:41;100871.53;;;33.04;40.60
54455;BME280;40364;52.270;10.546;2023-06-22T00:08:08;100876.94;;;32.88;40.76
54455;BME280;40364;52.270;10.546;2023-06-22T00:10:35;100870.56;;;32.84;40.78
54455;BME280;40364;52.270;10.546;2023-06-22T00:13:03;100876.81;;;33.06;40.72
54455;BME280;40364;52.270;10.546;2023-06-22T00:15:30;100870.38;;;32.87;40.39
54455;BME280;40364;52.270;10.546;2023-06-22T00:17:56;100875.97;;;32.91;40.67
54455;BME280;40364;52.270;10.546;2023-06-22T00:20:24;100876.16;;;32.87;40.69
54455;BME280;40364;52.270;10.546;2023-06-22T00:22:53;100882.59;;;32.73;40.98
54455;BME280;40364;52.270;10.546;2023-06-22T00:25:20;100875.19;;;32.57;41.38
54455;BME280;40364;52.270;10.546;2023-06-22T00:27:47;100882.03;;;32.36;42.24
54455;BME280;40364;52.270;10.546;2023-06-22T00:30:15;100879.09;;;32.78;41.77
54455;BME280;40364;52.270;10.546;2023-06-22T00:32:42;100882.84;;;32.27;42.70
54455;BME280;40364;52.270;10.546;2023-06-22T00:35:09;100887.63;;;32.39;42.62
54455;BME280;40364;52.270;10.546;2023-06-22T00:37:36;100891.25;;;31.98;43.55
54455;BME280;40364;52.270;10.546;2023-06-22T00:40:04;100896.75;;;31.68;44.45
54455;BME280;40364;52.270;10.546;2023-06-22T00:42:31;100898.59;;;32.08;43.59
54455;BME280;40364;52.270;10.546;2023-06-22T00:44:57;100900.47;;;32.11;43.45
54455;BME280;40364;52.270;10.546;2023-06-22T00:47:26;100896.78;;;32.20;43.13
54455;BME280;40364;52.270;10.546;2023-06-22T00:49:53;100901.50;;;31.90;43.52
54455;BME280;40364;52.270;10.546;2023-06-22T00:52:21;100903.34;;;32.20;43.49
54455;BME280;40364;52.270;10.546;2023-06-22T00:54:53;100904.72;;;32.43;42.19
54455;BME280;40364;52.270;10.546;2023-06-22T00:57:21;100900.28;;;32.33;42.55
54455;BME280;40364;52.270;10.546;2023-06-22T00:59:48;100906.94;;;31.97;43.15
54455;BME280;40364;52.270;10.546;2023-06-22T01:02:15;100896.47;;;32.27;42.71
54455;BME280;40364;52.270;10.546;2023-06-22T01:04:43;100890.25;;;32.52;42.12
54455;BME280;40364;52.270;10.546;2023-06-22T01:07:16;100883.00;;;32.33;42.76
54455;BME280;40364;52.270;10.546;2023-06-22T01:09:54;100881.66;;;32.43;42.25
54455;BME280;40364;52.270;10.546;2023-06-22T01:12:24;100884.63;;;32.25;42.52
54455;BME280;40364;52.270;10.546;2023-06-22T01:14:56;100868.69;;;32.05;42.95
54455;BME280;40364;52.270;10.546;2023-06-22T01:17:26;100871.34;;;32.27;42.94
54455;BME280;40364;52.270;10.546;2023-06-22T01:19:55;100862.38;;;32.16;42.87
54455;BME280;40364;52.270;10.546;2023-06-22T01:22:25;100853.19;;;31.94;43.73
54455;BME280;40364;52.270;10.546;2023-06-22T01:25:07;100857.81;;;31.91;43.18
54455;BME280;40364;52.270;10.546;2023-06-22T01:27:40;100854.91;;;32.00;43.34
54455;BME280;40364;52.270;10.546;2023-06-22T01:30:12;100863.56;;;32.42;41.87
54455;BME280;40364;52.270;10.546;2023-06-22T01:32:41;100855.16;;;31.51;43.47
54455;BME280;40364;52.270;10.546;2023-06-22T01:35:08;100860.63;;;31.67;43.52
54455;BME280;40364;52.270;10.546;2023-06-22T01:37:37;100868.09;;;31.83;43.35
54455;BME280;40364;52.270;10.546;2023-06-22T01:40:05;100856.72;;;31.89;42.95
54455;BME280;40364;52.270;10.546;2023-06-22T01:42:34;100844.72;;;31.90;42.80
54455;BME280;40364;52.270;10.546;2023-06-22T01:45:02;100842.94;;;31.93;42.89
54455;BME280;40364;52.270;10.546;2023-06-22T01:47:30;100846.28;;;32.00;42.89
54455;BME280;40364;52.270;10.546;2023-06-22T01:49:57;100844.28;;;31.64;43.43
54455;BME280;40364;52.270;10.546;2023-06-22T01:52:24;100851.00;;;31.79;42.67
54455;BME280;40364;52.270;10.546;2023-06-22T01:54:51;100845.84;;;31.84;42.75
54455;BME280;40364;52.270;10.546;2023-06-22T01:57:17;100847.44;;;31.85;42.64
54455;BME280;40364;52.270;10.546;2023-06-22T01:59:49;100862.69;;;32.27;41.97
54455;BME280;40364;52.270;10.546;2023-06-22T02:02:20;100860.84;;;31.97;42.31
54455;BME280;40364;52.270;10.546;2023-06-22T02:04:57;100855.78;;;31.64;42.89
54455;BME280;40364;52.270;10.546;2023-06-22T02:07:29;100850.53;;;31.72;43.10
54455;BME280;40364;52.270;10.546;2023-06-22T02:09:59;100852.59;;;31.62;42.94
54455;BME280;40364;52.270;10.546;2023-06-22T02:12:27;100846.53;;;31.69;42.94
54455;BME280;40364;52.270;10.546;2023-06-22T02:14:55;100849.25;;;31.55;42.93
54455;BME280;40364;52.270;10.546;2023-06-22T02:17:23;100841.25;;;31.77;42.47
54455;BME280;40364;52.270;10.546;2023-06-22T02:19:50;100842.06;;;31.41;43.17
54455;BME280;40364;52.270;10.546;2023-06-22T02:22:18;100838.56;;;31.46;43.21
54455;BME280;40364;52.270;10.546;2023-06-22T02:24:45;100854.22;;;31.36;42.88
54455;BME280;40364;52.270;10.546;2023-06-22T02:27:12;100846.22;;;31.40;42.81
54455;BME280;40364;52.270;10.546;2023-06-22T02:29:38;100856.47;;;31.32;43.22
54455;BME280;40364;52.270;10.546;2023-06-22T02:32:05;100838.88;;;31.48;42.58
54455;BME280;40364;52.270;10.546;2023-06-22T02:34:32;100845.91;;;31.29;42.54
54455;BME280;40364;52.270;10.546;2023-06-22T02:36:59;100848.97;;;31.16;42.92
54455;BME280;40364;52.270;10.546;2023-06-22T02:39:29;100853.28;;;31.30;42.64
54455;BME280;40364;52.270;10.546;2023-06-22T02:41:56;100857.09;;;31.27;42.61
54455;BME280;40364;52.270;10.546;2023-06-22T02:44:22;100851.19;;;31.30;42.62
54455;BME280;40364;52.270;10.546;2023-06-22T02:46:49;100867.97;;;31.32;42.50
54455;BME280;40364;52.270;10.546;2023-06-22T02:49:16;100867.03;;;31.35;42.47
54455;BME280;40364;52.270;10.546;2023-06-22T02:51:45;100865.41;;;31.43;42.61
54455;BME280;40364;52.270;10.546;2023-06-22T02:54:13;100869.72;;;31.29;42.55
54455;BME280;40364;52.270;10.546;2023-06-22T02:56:41;100875.00;;;31.49;42.31
54455;BME280;40364;52.270;10.546;2023-06-22T02:59:09;100874.38;;;31.36;42.29
54455;BME280;40364;52.270;10.546;2023-06-22T03:01:37;100880.13;;;31.36;42.44
54455;BME280;40364;52.270;10.546;2023-06-22T03:04:05;100882.69;;;31.16;42.96
54455;BME280;40364;52.270;10.546;2023-06-22T03:06:32;100895.81;;;31.35;42.32
54455;BME280;40364;52.270;10.546;2023-06-22T03:09:00;100894.81;;;31.56;42.08
54455;BME280;40364;52.270;10.546;2023-06-22T03:11:29;100897.53;;;31.51;41.90
54455;BME280;40364;52.270;10.546;2023-06-22T03:13:57;100912.72;;;31.60;41.65
54455;BME280;40364;52.270;10.546;2023-06-22T03:16:24;100906.00;;;31.54;41.70
54455;BME280;40364;52.270;10.546;2023-06-22T03:18:51;100908.91;;;31.36;41.63
54455;BME280;40364;52.270;10.546;2023-06-22T03:21:18;100916.41;;;31.52;41.33
54455;BME280;40364;52.270;10.546;2023-06-22T03:23:45;100911.44;;;31.52;41.30
54455;BME280;40364;52.270;10.546;2023-06-22T03:26:12;100913.69;;;31.57;41.11
54455;BME280;40364;52.270;10.546;2023-06-22T03:28:38;100919.47;;;31.75;41.06
54455;BME280;40364;52.270;10.546;2023-06-22T03:31:06;100919.63;;;31.72;41.22
54455;BME280;40364;52.270;10.546;2023-06-22T03:33:33;100915.63;;;31.69;41.02
54455;BME280;40364;52.270;10.546;2023-06-22T03:35:59;100922.84;;;31.74;41.17
54455;BME280;40364;52.270;10.546;2023-06-22T03:38:26;100928.75;;;31.70;41.16
54455;BME280;40364;52.270;10.546;2023-06-22T03:40:53;100927.75;;;31.83;40.88
54455;BME280;40364;52.270;10.546;2023-06-22T03:43:19;100939.31;;;31.73;41.26
54455;BME280;40364;52.270;10.546;2023-06-22T03:45:46;100927.59;;;31.49;41.39
54455;BME280;40364;52.270;10.546;2023-06-22T03:48:14;100926.47;;;32.02;40.81
54455;BME280;40364;52.270;10.546;2023-06-22T03:50:40;100921.34;;;32.06;40.44
54455;BME280;40364;52.270;10.546;2023-06-22T03:53:09;100924.22;;;31.97;40.55
54455;BME280;40364;52.270;10.546;2023-06-22T03:55:36;100926.25;;;32.24;40.18
54455;BME280;40364;52.270;10.546;2023-06-22T03:58:02;100923.19;;;32.18;40.18
54455;BME280;40364;52.270;10.546;2023-06-22T04:00:31;100921.97;;;32.01;40.66
54455;BME280;40364;52.270;10.546;2023-06-22T04:02:57;100925.13;;;32.12;40.70
54455;BME280;40364;52.270;10.546;2023-06-22T04:05:25;100923.84;;;32.31;40.43
54455;BME280;40364;52.270;10.546;2023-06-22T04:07:52;100918.25;;;32.28;40.45
54455;BME280;40364;52.270;10.546;2023-06-22T04:10:19;100913.94;;;32.56;39.96
54455;BME280;40364;52.270;10.546;2023-06-22T04:12:47;100914.56;;;32.60;39.70
54455;BME280;40364;52.270;10.546;2023-06-22T04:15:14;100901.28;;;32.63;39.75
54455;BME280;40364;52.270;10.546;2023-06-22T04:17:40;100897.28;;;32.60;39.51
54455;BME280;40364;52.270;10.546;2023-06-22T04:20:08;100897.09;;;32.97;39.15
54455;BME280;40364;52.270;10.546;2023-06-22T04:22:36;100893.56;;;32.69;39.78
54455;BME280;40364;52.270;10.546;2023-06-22T04:25:03;100901.00;;;32.52;40.14
54455;BME280;40364;52.270;10.546;2023-06-22T04:27:31;100883.34;;;32.59;39.75
54455;BME280;40364;52.270;10.546;2023-06-22T04:29:57;100892.38;;;32.42;39.67
54455;BME280;40364;52.270;10.546;2023-06-22T04:32:26;100898.44;;;32.87;39.06
54455;BME280;40364;52.270;10.546;2023-06-22T04:34:52;100894.28;;;33.26;38.49
54455;BME280;40364;52.270;10.546;2023-06-22T04:37:19;100890.47;;;33.29;38.46
54455;BME280;40364;52.270;10.546;2023-06-22T04:39:50;100887.44;;;33.62;37.99
54455;BME280;40364;52.270;10.546;2023-06-22T04:42:16;100892.13;;;33.36;38.21
54455;BME280;40364;52.270;10.546;2023-06-22T04:44:43;100885.22;;;33.19;38.42
54455;BME280;40364;52.270;10.546;2023-06-22T04:47:10;100885.34;;;33.24;38.80
54455;BME280;40364;52.270;10.546;2023-06-22T04:49:36;100889.25;;;33.36;38.38
54455;BME280;40364;52.270;10.546;2023-06-22T04:52:05;100894.78;;;33.63;38.02
54455;BME280;40364;52.270;10.546;2023-06-22T04:54:32;100883.63;;;33.56;37.92
54455;BME280;40364;52.270;10.546;2023-06-22T04:57:01;100886.72;;;33.67;37.68
54455;BME280;40364;52.270;10.546;2023-06-22T04:59:29;100900.56;;;33.25;37.96
54455;BME280;40364;52.270;10.546;2023-06-22T05:01:57;100897.66;;;33.49;38.08
54455;BME280;40364;52.270;10.546;2023-06-22T05:04:25;100894.34;;;33.79;37.22
54455;BME280;40364;52.270;10.546;2023-06-22T05:06:53;100891.09;;;33.77;37.14
54455;BME280;40364;52.270;10.546;2023-06-22T05:09:20;100893.34;;;33.83;37.27
54455;BME280;40364;52.270;10.546;2023-06-22T05:11:47;100886.31;;;33.74;37.06
54455;BME280;40364;52.270;10.546;2023-06-22T05:14:15;100888.47;;;33.89;36.94
54455;BME280;40364;52.270;10.546;2023-06-22T05:16:42;100893.94;;;33.87;36.69
54455;BME280;40364;52.270;10.546;2023-06-22T05:19:09;100891.44;;;33.79;36.88
54455;BME280;40364;52.270;10.546;2023-06-22T05:21:36;100887.25;;;33.95;36.61
54455;BME280;40364;52.270;10.546;2023-06-22T05:24:03;100886.34;;;34.04;36.55
54455;BME280;40364;52.270;10.546;2023-06-22T05:26:30;100876.19;;;34.08;36.17
54455;BME280;40364;52.270;10.546;2023-06-22T05:28:58;100876.97;;;34.09;35.94
54455;BME280;40364;52.270;10.546;2023-06-22T05:31:27;100879.47;;;34.16;36.07
54455;BME280;40364;52.270;10.546;2023-06-22T05:33:54;100876.00;;;33.97;36.81
54455;BME280;40364;52.270;10.546;2023-06-22T05:36:22;100878.69;;;34.01;36.49
54455;BME280;40364;52.270;10.546;2023-06-22T05:38:51;100883.38;;;33.84;36.44
54455;BME280;40364;52.270;10.546;2023-06-22T05:41:18;100880.94;;;34.26;36.55
54455;BME280;40364;52.270;10.546;2023-06-22T05:43:45;100876.00;;;34.12;36.08
54455;BME280;40364;52.270;10.546;2023-06-22T05:46:11;100881.38;;;34.19;36.72
54455;BME280;40364;52.270;10.546;2023-06-22T05:48:39;100874.66;;;34.42;35.93
54455;BME280;40364;52.270;10.546;2023-06-22T05:51:07;100864.41;;;34.97;35.41
54455;BME280;40364;52.270;10.546;2023-06-22T05:53:34;100864.63;;;34.08;36.43
54455;BME280;40364;52.270;10.546;2023-06-22T05:56:00;100866.31;;;34.65;35.90
54455;BME280;40364;52.270;10.546;2023-06-22T05:58:27;100864.03;;;34.89;35.06
54455;BME280;40364;52.270;10.546;2023-06-22T06:00:54;100871.28;;;34.79;35.28
54455;BME280;40364;52.270;10.546;2023-06-22T06:03:21;100874.47;;;34.81;34.85
54455;BME280;40364;52.270;10.546;2023-06-22T06:05:49;100875.47;;;34.43;35.55
54455;BME280;40364;52.270;10.546;2023-06-22T06:08:16;100866.69;;;33.64;37.11
54455;BME280;40364;52.270;10.546;2023-06-22T06:10:43;100862.38;;;34.48;35.91
54455;BME280;40364;52.270;10.546;2023-06-22T06:13:09;100864.91;;;34.95;35.67
54455;BME280;40364;52.270;10.546;2023-06-22T06:15:37;100864.63;;;34.93;35.43
54455;BME280;40364;52.270;10.546;2023-06-22T06:18:04;100867.69;;;34.84;35.86
54455;BME280;40364;52.270;10.546;2023-06-22T06:20:31;100872.09;;;35.00;35.92
54455;BME280;40364;52.270;10.546;2023-06-22T06:22:59;100874.75;;;35.24;35.71
54455;BME280;40364;52.270;10.546;2023-06-22T06:25:27;100866.72;;;34.93;36.02
54455;BME280;40364;52.270;10.546;2023-06-22T06:27:53;100863.75;;;34.87;35.89
54455;BME280;40364;52.270;10.546;2023-06-22T06:30:21;100866.63;;;35.28;35.77
54455;BME280;40364;52.270;10.546;2023-06-22T06:32:49;100858.03;;;35.33;35.32
54455;BME280;40364;52.270;10.546;2023-06-22T06:35:16;100867.34;;;35.23;35.54
54455;BME280;40364;52.270;10.546;2023-06-22T06:37:44;100870.94;;;35.58;35.05
54455;BME280;40364;52.270;10.546;2023-06-22T06:40:14;100864.41;;;35.37;35.20
54455;BME280;40364;52.270;10.546;2023-06-22T06:42:42;100858.00;;;35.80;34.78
54455;BME280;40364;52.270;10.546;2023-06-22T06:45:10;100861.63;;;35.74;35.11
54455;BME280;40364;52.270;10.546;2023-06-22T06:47:37;100864.19;;;35.67;35.33
54455;BME280;40364;52.270;10.546;2023-06-22T06:50:05;100867.38;;;35.43;34.78
54455;BME280;40364;52.270;10.546;2023-06-22T06:52:32;100862.47;;;35.08;35.51
54455;BME280;40364;52.270;10.546;2023-06-22T06:54:58;100868.53;;;35.10;35.82
54455;BME280;40364;52.270;10.546;2023-06-22T06:57:27;100863.28;;;35.55;34.77
54455;BME280;40364;52.270;10.546;2023-06-22T06:59:54;100871.03;;;35.23;34.94
54455;BME280;40364;52.270;10.546;2023-06-22T07:02:21;100870.25;;;35.23;35.49
54455;BME280;40364;52.270;10.546;2023-06-22T07:04:48;100870.56;;;34.84;35.54
54455;BME280;40364;52.270;10.546;2023-06-22T07:07:15;100871.00;;;35.64;34.99
54455;BME280;40364;52.270;10.546;2023-06-22T07:09:42;100874.25;;;35.97;34.58
54455;BME280;40364;52.270;10.546;2023-06-22T07:12:09;100869.59;;;36.05;34.36
54455;BME280;40364;52.270;10.546;2023-06-22T07:14:37;100869.38;;;36.15;34.24
54455;BME280;40364;52.270;10.546;2023-06-22T07:17:04;100879.44;;;36.19;34.14
54455;BME280;40364;52.270;10.546;2023-06-22T07:19:33;100861.00;;;36.22;34.13
54455;BME280;40364;52.270;10.546;2023-06-22T07:21:59;100878.50;;;36.28;34.14
54455;BME280;40364;52.270;10.546;2023-06-22T07:24:26;100874.09;;;36.12;34.32
54455;BME280;40364;52.270;10.546;2023-06-22T07:26:53;100863.69;;;36.63;33.54
54455;BME280;40364;52.270;10.546;2023-06-22T07:29:20;100863.75;;;36.31;33.98
54455;BME280;40364;52.270;10.546;2023-06-22T07:31:49;100864.19;;;37.09;33.17
54455;BME280;40364;52.270;10.546;2023-06-22T07:34:17;100858.50;;;36.04;34.06
54455;BME280;40364;52.270;10.546;2023-06-22T07:36:44;100857.94;;;36.68;33.22
54455;BME280;40364;52.270;10.546;2023-06-22T07:39:11;100848.72;;;37.24;32.57
54455;BME280;40364;52.270;10.546;2023-06-22T07:41:39;100849.06;;;36.83;33.25
54455;BME280;40364;52.270;10.546;2023-06-22T07:44:06;100850.78;;;36.64;33.16
54455;BME280;40364;52.270;10.546;2023-06-22T07:46:33;100848.59;;;36.53;33.75
54455;BME280;40364;52.270;10.546;2023-06-22T07:49:01;100845.16;;;36.97;32.83
54455;BME280;40364;52.270;10.546;2023-06-22T07:51:28;100847.31;;;37.14;33.13
54455;BME280;40364;52.270;10.546;2023-06-22T07:53:55;100848.25;;;37.64;32.19
54455;BME280;40364;52.270;10.546;2023-06-22T07:56:22;100847.63;;;36.67;33.18
54455;BME280;40364;52.270;10.546;2023-06-22T07:58:48;100845.06;;;37.40;32.21
54455;BME280;40364;52.270;10.546;2023-06-22T08:01:15;100846.63;;;37.30;32.57
54455;BME280;40364;52.270;10.546;2023-06-22T08:03:42;100835.38;;;36.89;33.21
54455;BME280;40364;52.270;10.546;2023-06-22T08:06:10;100839.28;;;37.62;32.21
54455;BME280;40364;52.270;10.546;2023-06-22T08:08:38;100842.97;;;37.46;32.54
54455;BME280;40364;52.270;10.546;2023-06-22T08:11:05;100839.84;;;38.00;31.75
54455;BME280;40364;52.270;10.546;2023-06-22T08:13:32;100833.56;;;37.03;32.92
54455;BME280;40364;52.270;10.546;2023-06-22T08:15:59;100842.97;;;37.46;33.05
54455;BME280;40364;52.270;10.546;2023-06-22T08:18:25;100836.56;;;37.20;33.23
54455;BME280;40364;52.270;10.546;2023-06-22T08:20:52;100849.31;;;37.61;32.17
54455;BME280;40364;52.270;10.546;2023-06-22T08:23:20;100851.50;;;38.11;32.35
54455;BME280;40364;52.270;10.546;2023-06-22T08:25:47;100844.31;;;38.62;31.36
54455;BME280;40364;52.270;10.546;2023-06-22T08:28:15;100851.50;;;38.22;31.60
54455;BME280;40364;52.270;10.546;2023-06-22T08:30:42;100844.31;;;37.56;32.42
54455;BME280;40364;52.270;10.546;2023-06-22T08:33:08;100856.00;;;38.29;31.88
54455;BME280;40364;52.270;10.546;2023-06-22T08:35:35;100844.97;;;39.08;31.41
54455;BME280;40364;52.270;10.546;2023-06-22T08:38:02;100848.19;;;38.93;30.65
54455;BME280;40364;52.270;10.546;2023-06-22T08:40:30;100848.81;;;38.58;31.52
54455;BME280;40364;52.270;10.546;2023-06-22T08:42:57;100857.88;;;38.15;31.86
54455;BME280;40364;52.270;10.546;2023-06-22T08:45:24;100853.59;;;38.05;31.58
54455;BME280;40364;52.270;10.546;2023-06-22T08:47:50;100860.47;;;38.35;31.49
54455;BME280;40364;52.270;10.546;2023-06-22T08:50:17;100852.53;;;38.41;31.46
54455;BME280;40364;52.270;10.546;2023-06-22T08:52:44;100852.28;;;38.00;32.24
54455;BME280;40364;52.270;10.546;2023-06-22T08:55:11;100852.25;;;37.67;32.39
54455;BME280;40364;52.270;10.546;2023-06-22T08:57:39;100835.97;;;39.00;31.48
54455;BME280;40364;52.270;10.546;2023-06-22T09:00:07;100845.94;;;39.27;30.77
54455;BME280;40364;52.270;10.546;2023-06-22T09:02:42;100840.75;;;39.09;30.59
54455;BME280;40364;52.270;10.546;2023-06-22T09:05:09;100846.53;;;39.61;30.11
54455;BME280;40364;52.270;10.546;2023-06-22T09:07:36;100846.22;;;39.18;31.12
54455;BME280;40364;52.270;10.546;2023-06-22T09:10:04;100848.19;;;38.93;31.65
54455;BME280;40364;52.270;10.546;2023-06-22T09:12:31;100846.22;;;39.23;30.77
54455;BME280;40364;52.270;10.546;2023-06-22T09:14:59;100833.38;;;39.49;30.59
54455;BME280;40364;52.270;10.546;2023-06-22T09:17:28;100835.59;;;39.26;31.21
54455;BME280;40364;52.270;10.546;2023-06-22T09:19:54;100828.69;;;38.65;31.59
54455;BME280;40364;52.270;10.546;2023-06-22T09:22:21;100830.47;;;38.85;31.26
54455;BME280;40364;52.270;10.546;2023-06-22T09:24:48;100816.16;;;38.93;31.73
54455;BME280;40364;52.270;10.546;2023-06-22T09:27:15;100803.72;;;39.80;30.76
54455;BME280;40364;52.270;10.546;2023-06-22T09:29:42;100802.81;;;40.51;30.00
54455;BME280;40364;52.270;10.546;2023-06-22T09:32:10;100803.59;;;40.51;29.61
54455;BME280;40364;52.270;10.546;2023-06-22T09:34:36;100805.16;;;40.28;29.68
54455;BME280;40364;52.270;10.546;2023-06-22T09:37:03;100791.75;;;39.13;31.29
54455;BME280;40364;52.270;10.546;2023-06-22T09:39:30;100792.34;;;39.41;31.10
54455;BME280;40364;52.270;10.546;2023-06-22T09:41:58;100793.19;;;40.31;29.83
54455;BME280;40364;52.270;10.546;2023-06-22T09:44:24;100784.50;;;40.26;30.30
54455;BME280;40364;52.270;10.546;2023-06-22T09:46:51;100783.56;;;39.82;30.60
54455;BME280;40364;52.270;10.546;2023-06-22T09:49:19;100776.25;;;40.73;29.82
54455;BME280;40364;52.270;10.546;2023-06-22T09:51:46;100778.44;;;40.67;29.83
54455;BME280;40364;52.270;10.546;2023-06-22T09:54:15;100785.53;;;40.04;30.21
54455;BME280;40364;52.270;10.546;2023-06-22T09:56:41;100783.72;;;39.65;31.03
54455;BME280;40364;52.270;10.546;2023-06-22T09:59:08;100789.22;;;40.29;30.15
54455;BME280;40364;52.270;10.546;2023-06-22T10:01:35;100787.91;;;38.77;31.75
54455;BME280;40364;52.270;10.546;2023-06-22T10:04:02;100787.91;;;40.54;29.61
54455;BME280;40364;52.270;10.546;2023-06-22T10:06:30;100782.75;;;39.52;30.35
54455;BME280;40364;52.270;10.546;2023-06-22T10:08:57;100786.31;;;40.29;29.38
54455;BME280;40364;52.270;10.546;2023-06-22T10:11:23;100775.13;;;40.57;28.87
54455;BME280;40364;52.270;10.546;2023-06-22T10:13:54;100771.72;;;40.78;28.59
54455;BME280;40364;52.270;10.546;2023-06-22T10:16:21;100770.31;;;40.84;28.85
54455;BME280;40364;52.270;10.546;2023-06-22T10:18:47;100779.16;;;41.16;27.91
54455;BME280;40364;52.270;10.546;2023-06-22T10:21:14;100786.88;;;41.32;27.93
54455;BME280;40364;52.270;10.546;2023-06-22T10:23:43;100773.91;;;40.23;29.23
54455;BME280;40364;52.270;10.546;2023-06-22T10:26:09;100769.22;;;39.84;29.98
54455;BME280;40364;52.270;10.546;2023-06-22T10:28:36;100772.94;;;40.15;29.35
54455;BME280;40364;52.270;10.546;2023-06-22T10:31:03;100765.31;;;40.79;28.63
54455;BME280;40364;52.270;10.546;2023-06-22T10:33:30;100781.38;;;39.94;29.47
54455;BME280;40364;52.270;10.546;2023-06-22T10:35:57;100773.13;;;39.98;29.72
54455;BME280;40364;52.270;10.546;2023-06-22T10:38:23;100769.97;;;40.45;29.21
54455;BME280;40364;52.270;10.546;2023-06-22T10:40:51;100781.28;;;40.29;29.57
54455;BME280;40364;52.270;10.546;2023-06-22T10:43:18;100767.78;;;41.13;28.87
54455;BME280;40364;52.270;10.546;2023-06-22T10:45:45;100767.78;;;41.13;28.54
54455;BME280;40364;52.270;10.546;2023-06-22T10:48:12;100768.56;;;41.13;28.10
54455;BME280;40364;52.270;10.546;2023-06-22T10:50:39;100766.47;;;41.64;28.07
54455;BME280;40364;52.270;10.546;2023-06-22T10:53:05;100750.28;;;41.63;28.13
54455;BME280;40364;52.270;10.546;2023-06-22T10:55:32;100750.69;;;41.99;27.80
54455;BME280;40364;52.270;10.546;2023-06-22T10:58:00;100740.75;;;41.44;28.01
54455;BME280;40364;52.270;10.546;2023-06-22T11:00:27;100736.75;;;41.28;28.48
54455;BME280;40364;52.270;10.546;2023-06-22T11:02:53;100741.50;;;40.94;28.74
54455;BME280;40364;52.270;10.546;2023-06-22T11:05:20;100733.63;;;40.89;28.81
54455;BME280;40364;52.270;10.546;2023-06-22T11:07:47;100736.69;;;40.96;28.25
54455;BME280;40364;52.270;10.546;2023-06-22T11:10:15;100733.16;;;41.54;27.53
54455;BME280;40364;52.270;10.546;2023-06-22T11:12:42;100721.63;;;41.43;27.40
54455;BME280;40364;52.270;10.546;2023-06-22T11:15:10;100733.28;;;42.20;26.64
54455;BME280;40364;52.270;10.546;2023-06-22T11:17:37;100721.16;;;42.16;26.33
54455;BME280;40364;52.270;10.546;2023-06-22T11:20:05;100723.00;;;43.06;26.08
54455;BME280;40364;52.270;10.546;2023-06-22T11:22:36;100734.63;;;42.85;25.92
54455;BME280;40364;52.270;10.546;2023-06-22T11:25:03;100720.47;;;42.36;25.59
54455;BME280;40364;52.270;10.546;2023-06-22T11:27:30;100717.97;;;41.88;26.56
54455;BME280;40364;52.270;10.546;2023-06-22T11:29:56;100717.84;;;40.35;28.18
54455;BME280;40364;52.270;10.546;2023-06-22T11:32:24;100708.00;;;41.32;27.15
54455;BME280;40364;52.270;10.546;2023-06-22T11:34:51;100701.06;;;41.94;26.54
54455;BME280;40364;52.270;10.546;2023-06-22T11:37:18;100703.59;;;43.37;24.72
54455;BME280;40364;52.270;10.546;2023-06-22T11:39:45;100692.09;;;43.39;24.45
54455;BME280;40364;52.270;10.546;2023-06-22T11:42:11;100695.28;;;44.47;23.93
54455;BME280;40364;52.270;10.546;2023-06-22T11:44:38;100691.56;;;44.83;22.62
54455;BME280;40364;52.270;10.546;2023-06-22T11:47:05;100679.66;;;44.52;23.26
54455;BME280;40364;52.270;10.546;2023-06-22T11:49:34;100666.28;;;44.08;23.17
54455;BME280;40364;52.270;10.546;2023-06-22T11:52:10;100665.44;;;44.36;22.77
54455;BME280;40364;52.270;10.546;2023-06-22T11:54:37;100655.22;;;45.31;21.76
54455;BME280;40364;52.270;10.546;2023-06-22T11:57:04;100652.59;;;44.97;21.72
54455;BME280;40364;52.270;10.546;2023-06-22T11:59:30;100665.13;;;44.90;22.21
54455;BME280;40364;52.270;10.546;2023-06-22T12:01:57;100660.72;;;45.43;21.41
54455;BME280;40364;52.270;10.546;2023-06-22T12:04:24;100655.81;;;45.22;21.48
54455;BME280;40364;52.270;10.546;2023-06-22T12:06:52;100647.94;;;44.15;22.76
54455;BME280;40364;52.270;10.546;2023-06-22T12:09:19;100648.91;;;44.17;22.97
54455;BME280;40364;52.270;10.546;2023-06-22T12:11:46;100635.66;;;43.46;23.27
54455;BME280;40364;52.270;10.546;2023-06-22T12:14:12;100630.97;;;44.28;22.73
54455;BME280;40364;52.270;10.546;2023-06-22T12:16:39;100621.72;;;44.53;22.91
54455;BME280;40364;52.270;10.546;2023-06-22T12:19:06;100619.41;;;46.26;20.74
54455;BME280;40364;52.270;10.546;2023-06-22T12:21:32;100617.91;;;46.98;20.68
54455;BME280;40364;52.270;10.546;2023-06-22T12:24:01;100617.00;;;46.48;21.08
54455;BME280;40364;52.270;10.546;2023-06-22T12:26:27;100618.38;;;45.53;21.13
54455;BME280;40364;52.270;10.546;2023-06-22T12:28:54;100620.34;;;45.51;21.84
54455;BME280;40364;52.270;10.546;2023-06-22T12:31:21;100615.09;;;44.60;22.30
54455;BME280;40364;52.270;10.546;2023-06-22T12:33:48;100607.63;;;44.59;22.31
54455;BME280;40364;52.270;10.546;2023-06-22T12:36:14;100603.06;;;45.78;21.30
54455;BME280;40364;52.270;10.546;2023-06-22T12:38:41;100611.03;;;46.63;20.56
54455;BME280;40364;52.270;10.546;2023-06-22T12:41:10;100596.34;;;47.45;20.09